createdAt,value
2019-01-16T00:03:07.012Z,98363.81
2019-01-16T00:07:39.398Z,98367.80
2019-01-16T00:12:11.786Z,98366.24
2019-01-16T00:16:31.794Z,98372.67
2019-01-16T00:20:51.991Z,98378.92
2019-01-16T00:25:12.093Z,98380.77
2019-01-16T00:29:31.464Z,98381.70
2019-01-16T00:34:03.440Z,98392.87
2019-01-16T00:38:26.561Z,98405.33
2019-01-16T00:42:56.044Z,98402.46
2019-01-16T00:47:22.274Z,98409.82
2019-01-16T00:51:43.186Z,98416.42
2019-01-16T00:56:02.897Z,98417.38
2019-01-16T01:00:28.622Z,98418.50
2019-01-16T01:04:47.998Z,98426.20
2019-01-16T01:09:07.246Z,98433.75
2019-01-16T01:13:44.172Z,98443.06
2019-01-16T01:18:07.248Z,98443.26
2019-01-16T01:22:36.602Z,98453.33
2019-01-16T01:26:59.626Z,98462.08
2019-01-16T01:31:20.336Z,98460.50
2019-01-16T01:35:58.562Z,98470.08
2019-01-16T01:40:18.661Z,98477.63
2019-01-16T01:44:41.579Z,98476.59
2019-01-16T01:49:04.865Z,98488.24
2019-01-16T01:53:23.878Z,98493.53
2019-01-16T01:57:49.708Z,98489.35
2019-01-16T02:01:57.832Z,98488.62
2019-01-16T02:06:36.523Z,98504.25
2019-01-16T02:11:11.548Z,98509.73
2019-01-16T02:15:44.203Z,98512.52
2019-01-16T02:20:16.312Z,98522.20
2019-01-16T02:24:32.901Z,98522.96
2019-01-16T02:29:02.009Z,98526.56
2019-01-16T02:33:34.396Z,98537.35
2019-01-16T02:37:44.053Z,98544.81
2019-01-16T02:42:10.821Z,98552.42
2019-01-16T02:46:35.924Z,98550.56
2019-01-16T02:51:04.833Z,98548.79
2019-01-16T02:55:23.725Z,98554.71
2019-01-16T03:00:02.336Z,98553.31
2019-01-16T03:04:31.652Z,98560.77
2019-01-16T03:08:57.790Z,98571.99
2019-01-16T03:13:07.141Z,98569.50
2019-01-16T03:17:26.002Z,98582.05
2019-01-16T03:21:48.773Z,98583.42
2019-01-16T03:26:00.987Z,98582.41
2019-01-16T03:30:19.555Z,98588.91
2019-01-16T03:34:29.202Z,98594.47
2019-01-16T03:38:58.244Z,98598.09
2019-01-16T03:43:12.469Z,98597.74
2019-01-16T03:47:32.588Z,98604.70
2019-01-16T03:51:59.226Z,98609.14
2019-01-16T03:56:19.215Z,98611.17
2019-01-16T04:00:46.181Z,98609.84
2019-01-16T04:04:55.831Z,98604.64
2019-01-16T04:09:14.704Z,98620.42
2019-01-16T04:13:35.932Z,98621.27
2019-01-16T04:17:57.668Z,98642.08
2019-01-16T04:22:19.875Z,98640.11
2019-01-16T04:26:39.710Z,98634.62
2019-01-16T04:31:17.319Z,98654.41
2019-01-16T04:35:48.870Z,98653.57
2019-01-16T04:40:07.512Z,98658.87
2019-01-16T04:44:26.307Z,98663.62
2019-01-16T04:48:44.940Z,98669.28
2019-01-16T04:53:14.013Z,98666.39
2019-01-16T04:57:32.383Z,98667.09
2019-01-16T05:02:00.969Z,98677.98
2019-01-16T05:06:11.766Z,98682.97
2019-01-16T05:10:26.534Z,98683.81
2019-01-16T05:14:37.903Z,98688.34
2019-01-16T05:19:16.443Z,98693.25
2019-01-16T05:23:51.484Z,98690.88
2019-01-16T05:28:14.648Z,98701.62
2019-01-16T05:32:46.644Z,98704.31
2019-01-16T05:37:06.018Z,98697.42
2019-01-16T05:41:34.936Z,98697.59
2019-01-16T05:45:53.994Z,98699.73
2019-01-16T05:50:09.395Z,98709.75
2019-01-16T05:54:28.089Z,98710.98
2019-01-16T05:58:56.853Z,98707.94
2019-01-16T06:03:34.958Z,98702.90
2019-01-16T06:07:57.994Z,98723.34
2019-01-16T06:12:20.908Z,98728.70
2019-01-16T06:16:39.678Z,98744.75
2019-01-16T06:21:02.237Z,98737.95
2019-01-16T06:25:30.843Z,98742.77
2019-01-16T06:29:49.498Z,98751.27
2019-01-16T06:34:18.473Z,98746.59
2019-01-16T06:38:37.274Z,98745.53
2019-01-16T06:43:03.278Z,98752.71
2019-01-16T06:47:19.956Z,98758.61
2019-01-16T06:51:31.847Z,98762.67
2019-01-16T06:55:54.903Z,98766.08
2019-01-16T07:00:13.359Z,98762.09
2019-01-16T07:04:27.222Z,98772.36
2019-01-16T07:08:53.158Z,98778.23
2019-01-16T07:13:08.233Z,98789.02
2019-01-16T07:17:37.555Z,98809.05
2019-01-16T07:22:15.825Z,98810.97
2019-01-16T07:26:35.492Z,98822.59
2019-01-16T07:30:49.755Z,98825.56
2019-01-16T07:35:18.708Z,98827.13
2019-01-16T07:39:38.483Z,98844.77
2019-01-16T07:43:53.448Z,98850.45
2019-01-16T07:48:13.508Z,98856.02
2019-01-16T07:52:39.107Z,98850.59
2019-01-16T07:56:56.788Z,98856.66
2019-01-16T08:01:25.784Z,98870.27
2019-01-16T08:05:49.227Z,98877.37
2019-01-16T08:10:17.363Z,98883.72
2019-01-16T08:14:49.439Z,98882.70
2019-01-16T08:19:07.883Z,98890.27
2019-01-16T08:23:26.803Z,98886.68
2019-01-16T08:27:46.488Z,98894.84
2019-01-16T08:32:14.875Z,98907.22
2019-01-16T08:36:56.143Z,98914.79
2019-01-16T08:41:25.147Z,98909.41
2019-01-16T08:45:45.148Z,98919.37
2019-01-16T08:50:13.028Z,98922.53
2019-01-16T08:54:42.008Z,98915.56
2019-01-16T08:58:55.478Z,98925.23
2019-01-16T09:03:18.138Z,98927.09
2019-01-16T09:07:36.918Z,98916.86
2019-01-16T09:11:51.402Z,98934.13
2019-01-16T09:16:14.443Z,98940.84
2019-01-16T09:20:28.497Z,98937.69
2019-01-16T09:24:47.673Z,98930.04
2019-01-16T09:29:19.218Z,98944.80
2019-01-16T09:33:32.027Z,98944.61
2019-01-16T09:38:01.608Z,98948.81
2019-01-16T09:42:14.528Z,98952.00
2019-01-16T09:46:51.844Z,98957.87
2019-01-16T09:51:14.974Z,98961.23
2019-01-16T09:55:29.709Z,98949.75
2019-01-16T09:59:55.354Z,98950.67
2019-01-16T10:04:13.919Z,98965.44
2019-01-16T10:08:32.697Z,98972.19
2019-01-16T10:12:58.233Z,98970.42
2019-01-16T10:17:24.782Z,98963.30
2019-01-16T10:21:47.690Z,98959.06
2019-01-16T10:26:16.579Z,98953.88
2019-01-16T10:30:47.718Z,98958.35
2019-01-16T10:35:19.828Z,98950.47
2019-01-16T10:39:38.616Z,98942.69
2019-01-16T10:43:56.487Z,98943.53
2019-01-16T10:48:19.020Z,98957.02
2019-01-16T10:52:41.263Z,98943.66
2019-01-16T10:57:16.348Z,98950.98
2019-01-16T11:01:51.652Z,98949.73
2019-01-16T11:06:14.693Z,98959.03
2019-01-16T11:10:33.267Z,98956.23
2019-01-16T11:15:01.578Z,98960.89
2019-01-16T11:19:21.368Z,98964.53
2019-01-16T11:23:51.499Z,98961.50
2019-01-16T11:28:18.524Z,98966.86
2019-01-16T11:32:48.183Z,98971.33
2019-01-16T11:37:08.603Z,98979.55
2019-01-16T11:41:20.218Z,98984.22
2019-01-16T11:45:38.625Z,98981.88
2019-01-16T11:49:57.312Z,98979.79
2019-01-16T11:54:29.324Z,98983.03
2019-01-16T11:58:44.358Z,98983.03
2019-01-16T12:03:01.789Z,98973.84
2019-01-16T12:07:21.518Z,98975.78
2019-01-16T12:11:34.532Z,98981.48
2019-01-16T12:16:03.977Z,98984.77
2019-01-16T12:20:30.568Z,98990.08
2019-01-16T12:24:49.514Z,98982.47
2019-01-16T12:29:08.303Z,98974.50
2019-01-16T12:33:31.315Z,98985.30
2019-01-16T12:38:03.617Z,98983.94
2019-01-16T12:42:31.408Z,98992.02
2019-01-16T12:55:30.957Z,98985.05
2019-01-16T12:59:50.328Z,98988.59
2019-01-16T13:04:13.640Z,98985.98
2019-01-16T13:08:36.513Z,98990.54
2019-01-16T13:12:58.127Z,98978.21
2019-01-16T13:17:36.508Z,98974.30
2019-01-16T13:21:56.369Z,98965.24
2019-01-16T13:26:22.062Z,98974.77
2019-01-16T13:40:00.454Z,98967.19
2019-01-16T13:44:20.449Z,98979.03
2019-01-16T13:48:53.015Z,98968.72
2019-01-16T14:00:49.136Z,98994.11
2019-01-16T14:05:00.624Z,99003.55
2019-01-16T14:09:33.658Z,99001.50
2019-01-16T14:14:00.489Z,98996.70
2019-01-16T14:18:25.202Z,98996.70
2019-01-16T14:22:57.258Z,98998.83
2019-01-16T14:27:23.319Z,98994.75
2019-01-16T14:32:01.428Z,98992.09
2019-01-16T14:36:36.391Z,98993.29
2019-01-16T14:41:08.369Z,98986.73
2019-01-16T14:45:28.057Z,98986.73
2019-01-16T14:49:56.751Z,98982.77
2019-01-16T14:54:22.610Z,98982.25
2019-01-16T14:58:45.457Z,98980.02
2019-01-16T15:03:05.429Z,98974.52
2019-01-16T15:07:26.799Z,98977.00
2019-01-16T15:11:43.767Z,98974.42
2019-01-16T15:16:03.754Z,98967.30
2019-01-16T15:20:23.407Z,98971.67
2019-01-16T15:24:31.311Z,98977.87
2019-01-16T15:29:03.179Z,98978.97
2019-01-16T15:33:25.845Z,98972.47
2019-01-16T15:37:46.348Z,98973.21
2019-01-16T15:42:01.019Z,98963.78
2019-01-16T15:46:21.172Z,98954.00
2019-01-16T15:50:59.447Z,98958.72
2019-01-16T15:55:25.537Z,98956.05
2019-01-16T15:59:48.041Z,98948.41
2019-01-16T16:04:13.910Z,98940.36
2019-01-16T16:08:33.087Z,98932.20
2019-01-16T16:13:05.013Z,98918.13
2019-01-16T16:17:19.096Z,98897.72
2019-01-16T16:21:48.203Z,98892.78
2019-01-16T16:26:18.317Z,98883.55
2019-01-16T16:30:33.701Z,98881.58
2019-01-16T16:35:08.647Z,98866.75
2019-01-16T16:39:27.742Z,98878.94
2019-01-16T16:43:36.106Z,98892.01
2019-01-16T16:47:54.642Z,98892.01
2019-01-16T16:52:07.266Z,98889.84
2019-01-16T16:56:36.583Z,98885.48
2019-01-16T17:01:02.399Z,98877.84
2019-01-16T17:05:36.727Z,98871.13
2019-01-16T17:09:51.677Z,98863.52
2019-01-16T17:14:11.211Z,98862.67
2019-01-16T17:18:39.897Z,98860.66
2019-01-16T17:23:11.831Z,98855.72
2019-01-16T17:27:31.396Z,98851.66
2019-01-16T17:31:44.412Z,98834.20
2019-01-16T17:36:03.066Z,98835.34
2019-01-16T17:40:11.096Z,98835.34
2019-01-16T17:44:29.544Z,98822.45
2019-01-16T17:48:38.797Z,98821.84
2019-01-16T17:53:04.277Z,98809.22
2019-01-16T17:57:29.646Z,98785.91
2019-01-16T18:01:41.582Z,98785.91
2019-01-16T18:06:10.498Z,98798.70
2019-01-16T18:10:20.549Z,98796.30
2019-01-16T18:14:40.391Z,98790.36
2019-01-16T18:19:10.486Z,98791.09
2019-01-16T18:23:36.918Z,98791.09
2019-01-16T18:28:05.779Z,98775.52
2019-01-16T18:32:28.961Z,98762.65
2019-01-16T18:36:47.729Z,98746.30
2019-01-16T18:41:10.798Z,98746.30
2019-01-16T18:45:29.782Z,98745.64
2019-01-16T18:49:55.740Z,98740.04
2019-01-16T18:54:24.793Z,98740.04
2019-01-16T18:58:36.202Z,98729.16
2019-01-16T19:02:58.965Z,98721.97
2019-01-16T19:07:18.819Z,98714.91
2019-01-16T19:11:38.548Z,98714.91
2019-01-16T19:15:53.663Z,98689.61
2019-01-16T19:20:19.401Z,98689.61
2019-01-16T19:24:45.164Z,98688.77
2019-01-16T19:29:03.797Z,98675.81
2019-01-16T19:33:17.942Z,98642.33
2019-01-16T19:37:50.546Z,98634.33
2019-01-16T19:42:09.708Z,98626.91
2019-01-16T19:46:28.293Z,98626.91
2019-01-16T19:50:44.442Z,98612.36
2019-01-16T19:55:19.634Z,98585.73
2019-01-16T19:59:57.654Z,98585.73
2019-01-16T20:04:17.326Z,98601.88
2019-01-16T20:08:35.712Z,98585.17
2019-01-16T20:12:55.902Z,98576.69
2019-01-16T20:17:06.248Z,98574.26
2019-01-16T20:21:30.642Z,98563.32
2019-01-16T20:25:57.038Z,98554.88
2019-01-16T20:30:07.371Z,98550.02
2019-01-16T20:34:39.580Z,98545.45
2019-01-16T20:38:59.386Z,98538.84
2019-01-16T20:43:17.496Z,98522.27
2019-01-16T20:47:46.334Z,98505.16
2019-01-16T20:52:06.100Z,98486.95
2019-01-16T20:56:25.745Z,98474.64
2019-01-16T21:00:44.054Z,98476.25
2019-01-16T21:05:02.453Z,98464.53
2019-01-16T21:09:37.048Z,98456.30
2019-01-16T21:14:02.483Z,98441.14
2019-01-16T21:28:30.852Z,98406.38
2019-01-16T21:33:00.902Z,98394.72
2019-01-16T21:37:27.897Z,98383.34
2019-01-16T21:42:03.407Z,98370.64
2019-01-16T21:46:22.041Z,98357.50
2019-01-16T21:50:41.966Z,98359.31
2019-01-16T22:07:04.233Z,98309.84
2019-01-16T22:11:22.540Z,98307.59
2019-01-16T22:15:51.631Z,98279.81
2019-01-16T22:20:02.049Z,98272.14
2019-01-16T22:36:03.560Z,98215.45
2019-01-16T22:40:26.331Z,98201.63
2019-01-16T22:44:50.416Z,98183.28
2019-01-16T22:49:16.224Z,98176.69
2019-01-16T22:53:52.504Z,98159.44
2019-01-16T22:58:12.887Z,98148.86
2019-01-16T23:02:41.798Z,98125.57
2019-01-16T23:06:49.343Z,98116.10
2019-01-16T23:11:01.782Z,98101.34
2019-01-16T23:15:15.727Z,98095.31
2019-01-16T23:19:34.997Z,98073.91
2019-01-16T23:23:51.719Z,98058.53
2019-01-16T23:28:11.830Z,98046.16
2019-01-16T23:32:44.110Z,98037.59
2019-01-16T23:37:03.502Z,98006.94
2019-01-16T23:41:26.425Z,97988.84
2019-01-16T23:45:45.347Z,97985.84
2019-01-16T23:50:11.674Z,97948.50
2019-01-16T23:54:37.407Z,97932.11
2019-01-16T23:59:15.729Z,97917.50
